This is the latest recevied weather packets stored in our database for station/object KG2V. If no packets are shown the sender has not sent any weather packets the latest 10 day(s).
| Time | Temp. | Humidity | Pressure | Rain* | Wind** | Luminosity | Snow |
|---|---|---|---|---|---|---|---|
| 1777873724 | 10° C | 61% | 1004.3 hPa | 0 mm | - | 0 W/m² | - |
| 1777873421 | 8.89° C | 62% | 1004.3 hPa | 0 mm | - | 0 W/m² | - |
| 1777873118 | 8.89° C | 65% | 1004.4 hPa | 0 mm | - | 0 W/m² | - |
| 1777872815 | 9.44° C | 63% | 1004.3 hPa | 0 mm | - | 0 W/m² | - |
| 1777872512 | 10° C | 61% | 1004.3 hPa | 0 mm | - | 0 W/m² | - |
| 1777872210 | 10° C | 62% | 1004.4 hPa | 0 mm | - | 0 W/m² | - |
| 1777871907 | 10° C | 61% | 1004.6 hPa | 0 mm | - | 0 W/m² | - |
| 1777871603 | 9.44° C | 62% | 1004.6 hPa | 0 mm | - | 0 W/m² | - |
| 1777871295 | 8.89° C | 64% | 1004.7 hPa | 0 mm | - | 0 W/m² | - |
| 1777870991 | 8.33° C | 66% | 1004.7 hPa | 0 mm | - | 0 W/m² | - |
| 1777870689 | 8.89° C | 67% | 1004.6 hPa | 0 mm | - | 0 W/m² | - |
| 1777870388 | 8.89° C | 65% | 1004.7 hPa | 0 mm | - | 0 W/m² | - |
| 1777870086 | 9.44° C | 64% | 1004.8 hPa | 0 mm | - | 0 W/m² | - |
| 1777869783 | 9.44° C | 63% | 1004.9 hPa | 0 mm | - | 0 W/m² | - |
| 1777869480 | 10° C | 62% | 1004.7 hPa | 0 mm | - | 0 W/m² | - |
| 1777869177 | 9.44° C | 62% | 1004.6 hPa | 0 mm | - | 0 W/m² | - |
| 1777868875 | 9.44° C | 63% | 1004.8 hPa | 0 mm | - | 0 W/m² | - |
| 1777868571 | 10° C | 62% | 1004.6 hPa | 0 mm | - | 0 W/m² | - |
| 1777868267 | 10° C | 60% | 1004.5 hPa | 0 mm | - | 0 W/m² | - |
| 1777867963 | 10° C | 60% | 1004.7 hPa | 0 mm | - | 0 W/m² | - |
| 1777867659 | 10° C | 62% | 1004.6 hPa | 0 mm | - | 0 W/m² | - |
| 1777867357 | 10° C | 62% | 1004.7 hPa | 0 mm | - | 0 W/m² | - |
| 1777867053 | 10.56° C | 60% | 1004.9 hPa | 0 mm | - | 0 W/m² | - |
| 1777866751 | 10.56° C | 60% | 1004.7 hPa | 0 mm | - | 0 W/m² | - |
| 1777866449 | 10.56° C | 60% | 1004.7 hPa | 0 mm | - | 0 W/m² | - |
* Rain latest hour (hover to see other rain measurements)
** Current wind speed in m/s (hover to see current wind gust speed)